Kezdőlap
METAR-TAF:

METAR-TAF

Repülőterek :

Nakhon Phanom, Thaiföld

földrajzi szélesség: 17-23-02N, földrajzi hosszúság: 104-38-35E, magasság: 179 m

Jelenlegi meteorológiai megfigyelések

A jelentés 42 perccel ezelõtt készült, 10:00 UTC
Északi szél 4 kt, észak-északnyugati és észak-északkeleti között változik
Hőmérséklet 32°C
Páratartalom 75%
Légköri nyomás 1003 hPa
Látótávolság 10 km, vagy több
Kevés felhő 3500 lábon

METAR: VTUW 151000Z 36004KT 330V030 9999 FEW035 32/27 Q1003 NOSIG

Idő: 17:42 (10:42 UTC)

Előrejelzés

A jelentés 5 órával és 42 perccel ezelõtt készült, 05:00 UTC
Az előrejelzés 15-én 06 óra UTC és 16-én 06 óra UTC között érvényes
Nyugat-délnyugati szél 5 kt
Látótávolság: 9000 m
Szórványos felhőzet 3000 lábon

TAF: VTUW 150500Z 1506/1606 25005KT 9000 SCT030

Meteorológiai megfigyelések és előrejelzések több, mint 4000 repülőtéren (METAR és TAF jelentéseket).

A térképen piros és sárga pontok jelzik az elérhető meteorológiai állomásokat.

Mozgassa az egeret a pont fölött, hogy megjelenjen az állomás neve.

Azután kattintson az időjárási megfigyelések és előrejelzések megtekintéséhez.

A térkép megváltoztatása: kattintson a fekete keresztel jelölt zöld gombra ráközelítéshez, a vonallal jelölt zöld gombra távolításhoz, vagy a zöld nyilakra a szomszédos térképek eléréséhez.


METAR-TAF: